Time;durP1;ratioP1;P1;durP2;ratioP2;P2;SDS_P1;SDS_P2;PMS_P1;PMS_P2;Temp;Humidity;BMP_temperature;BMP_pressure;BME280_temperature;BME280_humidity;BME280_pressure;Samples;Min_cycle;Max_cycle;Signal;HPM_P1;HPM_P2
2023/08/24 00:01:42;;;;;;;30.57;5.97;;;29.90;54.90;;;;;;5087958;28;20294;-76
2023/08/24 00:04:10;;;;;;;47.33;7.83;;;29.80;54.90;;;;;;5087238;28;20202;-76
2023/08/24 00:06:38;;;;;;;30.13;6.27;;;29.80;54.90;;;;;;5082649;28;20199;-76
2023/08/24 00:09:05;;;;;;;32.20;6.30;;;29.80;54.90;;;;;;5085831;28;20207;-76
2023/08/24 00:11:32;;;;;;;31.27;6.07;;;29.80;54.90;;;;;;5081206;28;20222;-76
2023/08/24 00:14:01;;;;;;;32.37;6.20;;;29.80;54.90;;;;;;5089649;28;20659;-76
2023/08/24 00:16:28;;;;;;;32.00;6.40;;;29.80;54.90;;;;;;5089557;28;21006;-76
2023/08/24 00:18:55;;;;;;;30.20;5.97;;;29.80;54.90;;;;;;5088935;28;20195;-76
2023/08/24 00:21:23;;;;;;;31.80;6.10;;;29.80;55.00;;;;;;5079734;28;20206;-76
2023/08/24 00:23:51;;;;;;;44.00;7.37;;;29.80;55.00;;;;;;5087496;28;20221;-76
2023/08/24 00:26:18;;;;;;;37.73;6.73;;;29.80;55.00;;;;;;5073392;28;20651;-76
2023/08/24 00:28:45;;;;;;;39.63;7.03;;;29.80;55.00;;;;;;5067523;28;21651;-76
2023/08/24 00:31:13;;;;;;;34.03;6.20;;;29.80;55.00;;;;;;5089103;28;20965;-75
2023/08/24 00:33:40;;;;;;;32.23;6.27;;;29.80;55.00;;;;;;5069889;28;20310;-75
2023/08/24 00:36:08;;;;;;;29.50;6.03;;;29.80;55.00;;;;;;5068015;28;20295;-75
2023/08/24 00:38:35;;;;;;;36.50;6.90;;;29.80;55.00;;;;;;5075944;28;20298;-75
2023/08/24 00:41:02;;;;;;;25.20;5.80;;;29.70;55.50;;;;;;5073648;28;20313;-75
2023/08/24 00:43:29;;;;;;;35.77;7.03;;;29.70;54.90;;;;;;5072593;28;20638;-75
2023/08/24 00:46:00;;;;;;;29.50;6.03;;;29.80;55.00;;;;;;5066584;28;20196;-75
2023/08/24 00:48:29;;;;;;;29.97;6.57;;;29.80;55.00;;;;;;5077534;28;20444;-75
2023/08/24 00:50:56;;;;;;;31.20;6.33;;;29.70;55.00;;;;;;5073624;28;20231;-75
2023/08/24 00:53:26;;;;;;;42.03;7.27;;;29.80;55.60;;;;;;5077815;28;20308;-75
2023/08/24 00:55:54;;;;;;;35.20;6.50;;;29.70;55.00;;;;;;5078610;28;20210;-76
2023/08/24 00:58:21;;;;;;;28.73;6.40;;;29.70;55.00;;;;;;5072445;28;20198;-75
2023/08/24 01:00:49;;;;;;;36.63;6.60;;;29.70;55.00;;;;;;5051522;28;20192;-76
2023/08/24 01:03:16;;;;;;;29.00;5.83;;;29.70;55.00;;;;;;5067560;28;20303;-75
2023/08/24 01:05:45;;;;;;;33.63;6.33;;;29.60;55.00;;;;;;5067001;28;20272;-75
2023/08/24 01:08:13;;;;;;;25.87;5.67;;;29.70;55.00;;;;;;5073079;28;20213;-76
2023/08/24 01:10:49;;;;;;;29.57;6.27;;;29.70;55.00;;;;;;5081803;28;20205;-75
2023/08/24 01:13:26;;;;;;;30.13;6.07;;;29.70;55.60;;;;;;5052319;28;20305;-74
2023/08/24 01:15:59;;;;;;;26.83;5.67;;;29.70;55.10;;;;;;5073554;28;20191;-74
2023/08/24 01:18:29;;;;;;;26.87;5.97;;;29.70;55.00;;;;;;5067433;28;20222;-75
2023/08/24 01:20:58;;;;;;;26.63;6.17;;;29.60;55.00;;;;;;5067320;28;20754;-75
2023/08/24 01:23:35;;;;;;;24.47;5.57;;;29.60;55.00;;;;;;5072464;28;20718;-75
2023/08/24 01:26:14;;;;;;;27.83;5.87;;;29.60;55.00;;;;;;5070836;28;20221;-75
2023/08/24 01:28:44;;;;;;;27.27;5.57;;;29.60;55.00;;;;;;5067313;28;20206;-75
2023/08/24 01:31:11;;;;;;;23.20;5.67;;;29.60;55.00;;;;;;5066784;28;20291;-75
2023/08/24 01:33:40;;;;;;;28.63;6.17;;;29.60;55.00;;;;;;5065746;28;20211;-75
2023/08/24 01:36:08;;;;;;;42.33;7.27;;;29.60;55.70;;;;;;5065423;28;20225;-75
2023/08/24 01:38:35;;;;;;;31.13;6.20;;;29.60;55.10;;;;;;5081195;28;20272;-75
2023/08/24 01:41:17;;;;;;;28.67;6.17;;;29.60;55.10;;;;;;5082322;28;20328;-75
2023/08/24 01:43:47;;;;;;;28.83;6.13;;;29.60;55.10;;;;;;5071627;28;20203;-75
2023/08/24 01:46:16;;;;;;;22.27;5.83;;;29.60;55.10;;;;;;5083543;28;20194;-76
2023/08/24 01:48:44;;;;;;;33.00;6.30;;;29.60;55.10;;;;;;5065638;28;20206;-76
2023/08/24 01:51:12;;;;;;;35.30;6.47;;;29.60;55.10;;;;;;5068784;28;20668;-75
2023/08/24 01:53:40;;;;;;;23.30;5.50;;;29.60;55.10;;;;;;5088574;28;20317;-74
2023/08/24 01:56:11;;;;;;;22.17;5.53;;;29.60;55.20;;;;;;5073770;28;20286;-75
2023/08/24 01:58:39;;;;;;;23.07;5.50;;;29.60;55.10;;;;;;5068331;28;20669;-75
2023/08/24 02:01:06;;;;;;;33.63;6.70;;;29.50;55.10;;;;;;5069802;28;20282;-76
2023/08/24 02:03:33;;;;;;;32.53;6.50;;;29.50;55.10;;;;;;5086961;28;20299;-75
2023/08/24 02:06:00;;;;;;;30.03;6.33;;;29.50;55.10;;;;;;5087889;28;20242;-74
2023/08/24 02:08:27;;;;;;;28.63;6.13;;;29.50;55.10;;;;;;5070843;28;20656;-74
2023/08/24 02:10:54;;;;;;;36.20;6.87;;;29.50;55.10;;;;;;5066932;28;20291;-74
2023/08/24 02:13:21;;;;;;;50.60;7.83;;;29.60;55.20;;;;;;5084105;28;20316;-75
2023/08/24 02:15:49;;;;;;;27.60;6.03;;;29.50;55.30;;;;;;5084121;28;20282;-76
2023/08/24 02:18:16;;;;;;;32.40;6.50;;;29.50;55.10;;;;;;5076094;28;20294;-74
2023/08/24 02:20:43;;;;;;;29.83;5.93;;;29.50;55.10;;;;;;5067693;28;20242;-74
2023/08/24 02:23:10;;;;;;;32.60;6.30;;;29.50;55.20;;;;;;5084907;28;20298;-75
2023/08/24 02:25:43;;;;;;;30.97;6.23;;;29.50;55.20;;;;;;5073003;28;20208;-75
2023/08/24 02:28:10;;;;;;;29.40;5.90;;;29.50;55.10;;;;;;5066502;28;20719;-75
2023/08/24 02:30:38;;;;;;;30.77;6.23;;;29.50;55.20;;;;;;5067437;28;20274;-75
2023/08/24 02:33:07;;;;;;;31.50;6.10;;;29.40;55.10;;;;;;5067965;28;20223;-75
2023/08/24 02:35:34;;;;;;;39.30;7.10;;;29.50;55.20;;;;;;5071151;28;20214;-75
2023/08/24 02:38:01;;;;;;;35.47;6.70;;;29.50;55.20;;;;;;5076089;28;20750;-75
2023/08/24 02:40:28;;;;;;;31.97;6.47;;;29.50;55.20;;;;;;5066494;28;20937;-75
2023/08/24 02:42:55;;;;;;;26.27;6.00;;;29.40;55.20;;;;;;5074002;28;20234;-75
2023/08/24 02:45:22;;;;;;;30.07;6.43;;;29.40;55.20;;;;;;5076102;28;20230;-75
2023/08/24 02:47:49;;;;;;;29.87;5.93;;;29.40;55.20;;;;;;5074710;28;20286;-75
2023/08/24 02:50:17;;;;;;;41.27;7.00;;;29.40;55.20;;;;;;5065721;28;22270;-75
2023/08/24 02:52:45;;;;;;;27.27;5.97;;;29.40;55.20;;;;;;5065923;28;20247;-75
2023/08/24 02:55:12;;;;;;;45.37;8.03;;;29.40;55.80;;;;;;5066685;28;20245;-75
2023/08/24 02:57:40;;;;;;;24.23;5.53;;;29.40;55.20;;;;;;5067957;28;20192;-75
2023/08/24 03:00:09;;;;;;;35.93;6.40;;;29.40;55.30;;;;;;5069043;28;20275;-75
2023/08/24 03:02:36;;;;;;;50.20;7.70;;;29.40;55.20;;;;;;5068956;28;20671;-75
2023/08/24 03:05:04;;;;;;;28.07;6.07;;;29.40;55.30;;;;;;5089240;28;20340;-74
2023/08/24 03:07:32;;;;;;;38.23;6.93;;;29.40;55.20;;;;;;5087998;28;20270;-74
2023/08/24 03:09:59;;;;;;;30.20;6.37;;;29.40;55.30;;;;;;5089157;28;20291;-74
2023/08/24 03:12:26;;;;;;;35.77;6.63;;;29.40;55.30;;;;;;5080941;28;20286;-74
2023/08/24 03:14:54;;;;;;;35.40;6.90;;;29.40;55.30;;;;;;5077433;28;20194;-75
2023/08/24 03:17:22;;;;;;;28.13;6.33;;;29.40;55.30;;;;;;5076518;28;20203;-74
2023/08/24 03:19:49;;;;;;;62.73;9.07;;;29.40;55.30;;;;;;5068176;28;20282;-75
2023/08/24 03:22:16;;;;;;;30.67;6.23;;;29.40;55.30;;;;;;5077593;28;20309;-74
2023/08/24 03:24:44;;;;;;;29.90;6.10;;;29.40;55.20;;;;;;5082936;28;20278;-74
2023/08/24 03:27:11;;;;;;;27.20;5.80;;;29.40;55.30;;;;;;5069549;28;20206;-74
2023/08/24 03:29:38;;;;;;;34.63;6.63;;;29.30;55.20;;;;;;5070153;28;20202;-74
2023/08/24 03:32:05;;;;;;;28.03;6.30;;;29.30;55.20;;;;;;5068914;28;20231;-74
2023/08/24 03:34:32;;;;;;;37.07;6.77;;;29.40;55.30;;;;;;5081363;28;20324;-75
2023/08/24 03:36:59;;;;;;;34.60;6.83;;;29.30;55.20;;;;;;5078978;28;20218;-75
2023/08/24 03:39:26;;;;;;;33.47;6.23;;;29.30;55.20;;;;;;5070534;28;20314;-77
2023/08/24 03:41:54;;;;;;;43.40;7.27;;;29.30;55.20;;;;;;5068850;28;20283;-78
2023/08/24 03:44:22;;;;;;;40.37;7.53;;;29.30;55.20;;;;;;5069038;28;20206;-77
2023/08/24 03:46:49;;;;;;;30.13;6.50;;;29.30;55.20;;;;;;5066174;28;20567;-78
2023/08/24 03:49:16;;;;;;;33.77;6.33;;;29.30;55.20;;;;;;5068012;28;20286;-78
2023/08/24 03:51:43;;;;;;;29.10;6.37;;;29.30;55.20;;;;;;5069443;28;20671;-77
2023/08/24 03:54:10;;;;;;;31.40;6.30;;;29.30;55.20;;;;;;5070449;28;20241;-78
2023/08/24 03:56:37;;;;;;;34.13;6.70;;;29.30;55.20;;;;;;5068195;28;20203;-77
2023/08/24 03:59:05;;;;;;;24.77;5.73;;;29.30;55.20;;;;;;5070126;28;20187;-77
2023/08/24 04:01:32;;;;;;;36.77;6.87;;;29.30;55.20;;;;;;5070267;28;20682;-77
2023/08/24 04:03:59;;;;;;;31.33;6.63;;;29.30;55.20;;;;;;5070114;28;20211;-78
2023/08/24 04:06:26;;;;;;;41.67;6.80;;;29.30;55.20;;;;;;5084903;28;20294;-77
2023/08/24 04:08:53;;;;;;;47.30;7.57;;;29.30;55.20;;;;;;5070149;28;20315;-77
2023/08/24 04:11:20;;;;;;;29.03;6.47;;;29.30;55.20;;;;;;5087984;28;20290;-78
2023/08/24 04:13:47;;;;;;;31.77;6.53;;;29.20;55.10;;;;;;5090109;28;20307;-78
2023/08/24 04:16:15;;;;;;;31.33;6.23;;;29.20;55.10;;;;;;5074867;28;20208;-78
2023/08/24 04:18:42;;;;;;;30.63;6.23;;;29.20;55.10;;;;;;5069476;28;20208;-78
2023/08/24 04:21:09;;;;;;;27.90;5.90;;;29.20;55.20;;;;;;5078942;28;20199;-77
2023/08/24 04:23:36;;;;;;;37.93;7.17;;;29.20;55.10;;;;;;5087345;28;20663;-77
2023/08/24 04:26:04;;;;;;;33.20;6.40;;;29.20;55.10;;;;;;5068615;28;20297;-78
2023/08/24 04:28:31;;;;;;;26.07;5.97;;;29.20;55.10;;;;;;5069073;28;20211;-77
2023/08/24 04:30:58;;;;;;;32.03;6.70;;;29.20;55.10;;;;;;5076530;28;20202;-77
2023/08/24 04:33:27;;;;;;;31.50;6.63;;;29.20;55.10;;;;;;5084572;28;20233;-77
2023/08/24 04:35:54;;;;;;;29.67;6.50;;;29.20;55.10;;;;;;5066820;28;20302;-77
2023/08/24 04:38:21;;;;;;;38.33;7.20;;;29.20;55.10;;;;;;5084192;28;20214;-77
2023/08/24 04:40:50;;;;;;;50.90;8.30;;;29.20;55.10;;;;;;5083523;28;20191;-77
2023/08/24 04:43:17;;;;;;;33.60;6.53;;;29.10;55.10;;;;;;5066676;28;20199;-77
2023/08/24 04:45:46;;;;;;;47.85;8.40;;;29.10;55.20;;;;;;5079620;28;20988;-79
2023/08/24 04:48:13;;;;;;;30.97;6.60;;;29.10;55.20;;;;;;5080442;28;20302;-80
2023/08/24 04:50:44;;;;;;;30.63;6.50;;;29.10;55.20;;;;;;5073783;28;21047;-80
2023/08/24 04:53:11;;;;;;;32.80;6.30;;;29.10;55.20;;;;;;5071622;28;20678;-80
2023/08/24 04:55:38;;;;;;;28.97;6.07;;;29.10;55.20;;;;;;5068710;28;20776;-80
2023/08/24 04:58:05;;;;;;;27.10;6.10;;;29.10;55.20;;;;;;5067718;28;20290;-80
2023/08/24 05:00:33;;;;;;;28.10;6.27;;;29.10;55.20;;;;;;5074033;28;20286;-80
2023/08/24 05:03:00;;;;;;;26.60;6.13;;;29.10;55.20;;;;;;5074788;28;20206;-80
2023/08/24 05:05:27;;;;;;;44.73;7.77;;;29.10;55.20;;;;;;5075903;28;20571;-80
2023/08/24 05:07:56;;;;;;;39.03;7.17;;;29.10;55.20;;;;;;5067405;28;20202;-80
2023/08/24 05:10:23;;;;;;;33.17;6.33;;;29.10;55.20;;;;;;5066846;28;20781;-80
2023/08/24 05:12:50;;;;;;;32.67;6.43;;;29.10;55.20;;;;;;5067873;28;20287;-80
2023/08/24 05:15:17;;;;;;;31.17;6.43;;;29.10;55.20;;;;;;5068814;28;20203;-80
2023/08/24 05:17:44;;;;;;;32.63;6.87;;;29.10;55.20;;;;;;5059678;28;20737;-80
2023/08/24 05:20:11;;;;;;;47.27;7.97;;;29.10;55.20;;;;;;5074702;28;20282;-80
2023/08/24 05:22:38;;;;;;;35.23;7.27;;;29.10;55.20;;;;;;5071253;28;20282;-79
2023/08/24 05:25:08;;;;;;;35.13;7.30;;;29.10;55.20;;;;;;5067459;28;20354;-79
2023/08/24 05:27:35;;;;;;;33.30;6.57;;;29.10;55.30;;;;;;5065269;28;20234;-80
2023/08/24 05:30:01;;;;;;;27.17;6.37;;;29.10;55.30;;;;;;5066396;28;20281;-79
2023/08/24 05:32:28;;;;;;;33.37;6.60;;;29.10;55.30;;;;;;5066966;28;20290;-79
2023/08/24 05:34:55;;;;;;;67.23;9.77;;;29.10;55.30;;;;;;5063802;28;20237;-80
2023/08/24 05:37:22;;;;;;;31.97;6.67;;;29.10;55.30;;;;;;5069158;28;20797;-80
2023/08/24 05:39:49;;;;;;;48.43;8.40;;;29.10;55.30;;;;;;5063809;28;20295;-80
2023/08/24 05:42:19;;;;;;;25.47;6.40;;;29.10;55.30;;;;;;5066582;28;20207;-80
2023/08/24 05:44:46;;;;;;;27.80;6.83;;;29.10;55.30;;;;;;5067764;28;20286;-80
2023/08/24 05:47:13;;;;;;;25.13;5.87;;;29.00;55.30;;;;;;5065784;28;20310;-80
2023/08/24 05:49:39;;;;;;;37.37;7.20;;;29.00;55.30;;;;;;5064030;28;20206;-78
2023/08/24 05:52:06;;;;;;;30.30;6.93;;;29.10;55.30;;;;;;5071100;28;20199;-77
2023/08/24 05:54:33;;;;;;;24.00;6.80;;;29.00;55.40;;;;;;5070355;28;20211;-74
2023/08/24 05:57:00;;;;;;;59.10;9.20;;;29.10;55.40;;;;;;5063973;28;20239;-73
2023/08/24 05:59:29;;;;;;;56.37;8.90;;;29.10;55.50;;;;;;5061990;28;20199;-71
2023/08/24 06:01:56;;;;;;;41.13;8.63;;;29.00;55.40;;;;;;5069829;28;20283;-79
2023/08/24 06:04:23;;;;;;;25.30;6.53;;;29.00;55.40;;;;;;5069800;28;20942;-76
2023/08/24 06:06:50;;;;;;;28.87;6.30;;;29.00;55.40;;;;;;5065633;28;20241;-75
2023/08/24 06:09:17;;;;;;;37.30;7.57;;;29.10;55.60;;;;;;5065643;28;20209;-74
2023/08/24 06:11:47;;;;;;;44.97;8.20;;;29.00;55.40;;;;;;5066915;28;20199;-74
2023/08/24 06:14:15;;;;;;;30.80;6.87;;;29.00;55.50;;;;;;5067004;28;20215;-73
2023/08/24 06:16:43;;;;;;;31.43;6.87;;;29.10;55.50;;;;;;5066711;28;20204;-74
2023/08/24 06:19:10;;;;;;;40.27;7.37;;;29.00;55.40;;;;;;5066359;28;20205;-74
2023/08/24 06:21:37;;;;;;;30.63;6.73;;;29.10;55.50;;;;;;5066598;28;20320;-74
2023/08/24 06:24:04;;;;;;;38.03;7.03;;;29.00;56.10;;;;;;5066581;28;20206;-74
2023/08/24 06:26:31;;;;;;;31.63;6.77;;;29.10;55.50;;;;;;5065006;28;20200;-73
2023/08/24 06:28:58;;;;;;;33.23;6.93;;;29.10;55.50;;;;;;5067384;28;20286;-74
2023/08/24 06:31:25;;;;;;;50.03;8.23;;;29.00;55.50;;;;;;5065700;28;20264;-74
2023/08/24 06:33:54;;;;;;;26.90;6.10;;;29.10;55.50;;;;;;5069622;28;20231;-74
2023/08/24 06:36:21;;;;;;;33.90;6.93;;;29.10;55.50;;;;;;5070385;28;20746;-73
2023/08/24 06:38:48;;;;;;;27.43;6.37;;;29.10;55.50;;;;;;5069421;28;20326;-74
2023/08/24 06:41:15;;;;;;;36.23;7.50;;;29.10;55.50;;;;;;5071170;28;20202;-73
2023/08/24 06:43:41;;;;;;;36.80;6.97;;;29.10;55.50;;;;;;5069379;28;20238;-73
2023/08/24 06:46:09;;;;;;;38.43;7.13;;;29.10;55.50;;;;;;5068430;28;20204;-74
2023/08/24 06:48:37;;;;;;;29.93;6.50;;;29.10;55.50;;;;;;5070287;28;20206;-74
2023/08/24 06:51:05;;;;;;;34.63;6.87;;;29.10;55.50;;;;;;5069965;28;20203;-74
2023/08/24 06:53:32;;;;;;;25.10;6.03;;;29.10;55.50;;;;;;5070783;28;20204;-74
2023/08/24 06:55:59;;;;;;;25.93;6.57;;;29.10;55.50;;;;;;5070689;28;20265;-73
2023/08/24 06:58:25;;;;;;;43.97;8.13;;;29.10;55.50;;;;;;5069354;28;20204;-73
2023/08/24 07:00:52;;;;;;;30.80;7.27;;;29.10;55.50;;;;;;5070683;28;20299;-73
2023/08/24 07:03:19;;;;;;;47.30;8.53;;;29.10;56.10;;;;;;5069468;28;20247;-73
2023/08/24 07:05:46;;;;;;;35.77;7.47;;;29.10;55.50;;;;;;5070846;28;20763;-73
2023/08/24 07:08:15;;;;;;;30.47;6.73;;;29.10;55.50;;;;;;5067794;28;20238;-73
2023/08/24 07:10:43;;;;;;;27.30;6.63;;;29.10;55.50;;;;;;5069889;28;20191;-73
2023/08/24 07:13:11;;;;;;;26.33;6.67;;;29.10;55.50;;;;;;5069759;28;20287;-73
2023/08/24 07:15:38;;;;;;;28.97;6.50;;;29.10;55.50;;;;;;5059547;28;20236;-73
2023/08/24 07:18:07;;;;;;;25.13;5.87;;;29.10;55.50;;;;;;5063907;28;20437;-73
2023/08/24 07:20:34;;;;;;;32.53;6.93;;;29.10;55.50;;;;;;5069614;28;20200;-73
2023/08/24 07:23:01;;;;;;;29.07;6.27;;;29.10;55.50;;;;;;5069573;28;20242;-73
2023/08/24 07:25:29;;;;;;;32.63;6.77;;;29.00;55.50;;;;;;5070767;28;20239;-74
2023/08/24 07:27:58;;;;;;;37.63;7.43;;;29.10;55.50;;;;;;5069038;28;20555;-74
2023/08/24 07:30:26;;;;;;;34.67;7.20;;;29.10;55.50;;;;;;5068566;28;20269;-75
2023/08/24 07:32:53;;;;;;;31.20;6.60;;;29.10;55.50;;;;;;5068111;28;20199;-73
2023/08/24 07:35:20;;;;;;;30.13;6.37;;;29.10;55.50;;;;;;5070197;28;20238;-73
2023/08/24 07:37:48;;;;;;;30.67;6.67;;;29.10;55.50;;;;;;5069501;28;20218;-74
2023/08/24 07:40:15;;;;;;;30.33;6.60;;;29.10;55.50;;;;;;5067901;28;20334;-77
2023/08/24 07:42:47;;;;;;;31.70;6.67;;;29.10;55.50;;;;;;5069703;28;20195;-74
2023/08/24 07:45:14;;;;;;;32.17;6.70;;;29.10;55.50;;;;;;5067604;28;20226;-73
2023/08/24 07:47:41;;;;;;;33.63;6.87;;;29.10;55.50;;;;;;5069099;28;20204;-75
2023/08/24 07:50:09;;;;;;;31.83;6.93;;;29.10;55.50;;;;;;5069150;28;20290;-74
2023/08/24 07:52:37;;;;;;;35.20;7.37;;;29.00;55.40;;;;;;5070512;28;20278;-73
2023/08/24 07:55:06;;;;;;;27.47;6.37;;;29.00;56.10;;;;;;5070105;28;20342;-73
2023/08/24 07:57:34;;;;;;;40.27;7.83;;;29.10;55.50;;;;;;5069615;28;20270;-76
2023/08/24 08:00:02;;;;;;;26.60;6.47;;;29.10;55.50;;;;;;5070024;28;20572;-76
2023/08/24 08:02:29;;;;;;;36.80;8.60;;;29.10;55.50;;;;;;5069233;28;20199;-72
2023/08/24 08:04:58;;;;;;;34.90;8.70;;;29.10;55.50;;;;;;5069193;28;20314;-72
2023/08/24 08:07:25;;;;;;;31.87;7.60;;;29.00;55.40;;;;;;5066245;28;20207;-76
2023/08/24 08:09:52;;;;;;;30.70;7.60;;;29.00;55.40;;;;;;5067950;28;20207;-73
2023/08/24 08:12:19;;;;;;;36.60;7.93;;;29.10;56.10;;;;;;5069431;28;20675;-73
2023/08/24 08:14:46;;;;;;;33.40;7.43;;;29.00;55.50;;;;;;5069450;28;20314;-72
2023/08/24 08:17:14;;;;;;;36.00;7.40;;;29.00;55.50;;;;;;5069094;28;20287;-73
2023/08/24 08:19:41;;;;;;;32.03;7.03;;;29.00;55.50;;;;;;5069416;28;20814;-73
2023/08/24 08:22:08;;;;;;;29.43;6.90;;;29.00;55.50;;;;;;5067177;28;20298;-74
2023/08/24 08:24:35;;;;;;;34.27;7.57;;;29.00;55.50;;;;;;5049509;28;20212;-76
2023/08/24 08:27:02;;;;;;;35.57;7.20;;;29.00;55.50;;;;;;5049042;28;20747;-73
2023/08/24 08:29:29;;;;;;;44.33;8.07;;;29.00;55.60;;;;;;5049162;28;20200;-73
2023/08/24 08:31:56;;;;;;;40.70;7.97;;;29.00;55.60;;;;;;5049852;28;20736;-73
2023/08/24 08:34:24;;;;;;;28.30;6.60;;;29.00;55.60;;;;;;5082956;28;20223;-75
2023/08/24 08:36:51;;;;;;;23.70;6.33;;;29.00;55.60;;;;;;5085698;28;20928;-79
2023/08/24 08:39:18;;;;;;;24.83;6.63;;;29.00;55.60;;;;;;5073783;28;20298;-74
2023/08/24 08:41:47;;;;;;;32.70;7.47;;;29.00;55.60;;;;;;5066411;28;20219;-73
2023/08/24 08:44:15;;;;;;;32.83;8.13;;;29.00;55.60;;;;;;5066920;28;20727;-75
2023/08/24 08:46:44;;;;;;;36.03;8.13;;;28.90;56.10;;;;;;5067099;28;20199;-75
2023/08/24 08:49:15;;;;;;;36.97;8.37;;;29.00;55.70;;;;;;5068052;28;20290;-79
2023/08/24 08:51:43;;;;;;;48.90;9.10;;;29.00;55.60;;;;;;5049964;28;20197;-82
2023/08/24 08:54:10;;;;;;;26.77;7.73;;;28.90;55.50;;;;;;5071282;28;20286;-77
2023/08/24 08:56:38;;;;;;;35.83;8.20;;;29.00;55.70;;;;;;5077402;28;20315;-77
2023/08/24 08:59:09;;;;;;;35.37;8.50;;;28.90;55.50;;;;;;5064690;28;20290;-75
2023/08/24 09:01:38;;;;;;;33.47;7.90;;;28.90;55.60;;;;;;5067236;28;20257;-77
2023/08/24 09:04:07;;;;;;;35.77;7.63;;;28.90;55.60;;;;;;5067564;28;20207;-76
2023/08/24 09:06:35;;;;;;;34.30;7.93;;;28.90;55.60;;;;;;5068405;28;20909;-77
2023/08/24 09:09:05;;;;;;;35.53;7.77;;;28.90;55.60;;;;;;5066969;28;20291;-77
2023/08/24 09:11:32;;;;;;;33.17;7.93;;;28.80;56.10;;;;;;5068696;28;20193;-76
2023/08/24 09:13:58;;;;;;;38.03;7.80;;;28.80;55.60;;;;;;5066354;28;20210;-74
2023/08/24 09:16:30;;;;;;;29.70;7.60;;;28.80;55.60;;;;;;5066277;28;20233;-76
2023/08/24 09:18:57;;;;;;;34.00;7.67;;;28.80;55.70;;;;;;5067523;28;20287;-75
2023/08/24 09:21:25;;;;;;;31.83;7.50;;;28.80;55.70;;;;;;5066525;28;20196;-75
2023/08/24 09:23:54;;;;;;;33.63;8.07;;;28.80;55.70;;;;;;5067030;28;20215;-76
2023/08/24 09:26:30;;;;;;;29.23;7.20;;;28.80;55.70;;;;;;5067523;28;20279;-76
2023/08/24 09:28:57;;;;;;;32.80;7.40;;;28.80;55.70;;;;;;5067239;28;20199;-75
2023/08/24 09:31:25;;;;;;;28.57;6.87;;;28.80;55.70;;;;;;5067451;28;20213;-76
2023/08/24 09:34:02;;;;;;;39.23;8.07;;;28.80;55.70;;;;;;5066601;28;20203;-77
2023/08/24 09:36:32;;;;;;;34.13;7.57;;;28.80;55.80;;;;;;5067888;28;20312;-77
2023/08/24 09:39:00;;;;;;;52.57;9.57;;;28.80;55.70;;;;;;5067034;28;20664;-76
2023/08/24 09:41:38;;;;;;;44.90;8.40;;;28.80;55.80;;;;;;5067777;28;20230;-76
2023/08/24 09:44:05;;;;;;;29.83;7.00;;;28.80;55.90;;;;;;5067004;28;20199;-79
2023/08/24 09:46:32;;;;;;;31.63;7.17;;;28.80;55.80;;;;;;5066631;28;20283;-76
2023/08/24 09:49:01;;;;;;;36.00;8.13;;;28.80;55.90;;;;;;5067106;28;20298;-76
2023/08/24 09:51:28;;;;;;;28.37;7.27;;;28.80;55.90;;;;;;5066812;28;20711;-79
2023/08/24 09:53:59;;;;;;;29.23;6.87;;;28.80;55.90;;;;;;5068101;28;20278;-78
2023/08/24 09:56:28;;;;;;;32.10;7.17;;;28.80;55.90;;;;;;5067819;28;20597;-77
2023/08/24 09:59:01;;;;;;;40.60;8.10;;;28.80;55.90;;;;;;5067401;28;20207;-79
2023/08/24 10:01:29;;;;;;;34.83;7.50;;;28.80;55.90;;;;;;5067979;28;20282;-76
2023/08/24 10:04:00;;;;;;;40.00;7.83;;;28.80;56.00;;;;;;5067592;28;20298;-76
2023/08/24 10:06:29;;;;;;;30.47;7.23;;;28.80;56.00;;;;;;5067843;28;20701;-77
2023/08/24 10:09:04;;;;;;;42.23;8.13;;;28.80;56.00;;;;;;5069753;28;20226;-77
2023/08/24 10:11:36;;;;;;;32.40;7.80;;;28.80;56.00;;;;;;5072271;28;20236;-77
2023/08/24 10:14:11;;;;;;;30.93;6.70;;;28.80;56.00;;;;;;5071508;28;20725;-76
2023/08/24 10:16:40;;;;;;;30.33;7.17;;;28.80;56.00;;;;;;5072002;28;20552;-76
2023/08/24 10:19:07;;;;;;;33.30;7.33;;;28.80;56.00;;;;;;5071816;28;20209;-76
2023/08/24 10:21:34;;;;;;;22.37;6.30;;;28.80;56.60;;;;;;5071364;28;20294;-76
2023/08/24 10:24:02;;;;;;;32.10;6.63;;;28.70;56.00;;;;;;5071917;28;20680;-75
2023/08/24 10:26:30;;;;;;;43.57;8.37;;;28.80;56.70;;;;;;5071059;28;20218;-75
2023/08/24 10:28:58;;;;;;;32.93;7.33;;;28.80;56.20;;;;;;5070622;28;20314;-76
2023/08/24 10:31:27;;;;;;;50.57;8.50;;;28.80;56.20;;;;;;5070281;28;20226;-75
2023/08/24 10:33:55;;;;;;;25.23;6.83;;;28.80;56.20;;;;;;5071007;28;20203;-75
2023/08/24 10:36:23;;;;;;;34.97;7.37;;;28.90;56.30;;;;;;5064786;28;20293;-78
2023/08/24 10:38:50;;;;;;;26.83;7.03;;;28.90;57.00;;;;;;5075748;28;20207;-83
2023/08/24 10:41:17;;;;;;;16.97;5.77;;;28.90;57.00;;;;;;5083912;28;20225;-73
2023/08/24 10:43:50;;;;;;;22.00;6.77;;;29.00;56.60;;;;;;5090327;28;20203;-73
2023/08/24 10:46:17;;;;;;;53.10;9.37;;;29.00;56.80;;;;;;5084702;28;20201;-77
2023/08/24 10:49:01;;;;;;;29.13;6.80;;;29.10;56.90;;;;;;5062103;28;20203;-79
2023/08/24 10:51:31;;;;;;;56.63;9.33;;;29.10;57.10;;;;;;5060363;28;20191;-78
2023/08/24 10:53:59;;;;;;;32.50;7.10;;;29.30;57.10;;;;;;5068998;28;20211;-78
2023/08/24 10:56:32;;;;;;;25.70;6.43;;;29.40;57.30;;;;;;5069875;28;20219;-78
2023/08/24 10:59:13;;;;;;;36.73;7.50;;;29.50;57.50;;;;;;5069352;28;20310;-78
2023/08/24 11:01:41;;;;;;;29.43;7.10;;;29.60;57.50;;;;;;5066702;28;20322;-78
2023/08/24 11:04:09;;;;;;;31.23;6.83;;;29.70;57.20;;;;;;5057600;28;20305;-78
2023/08/24 11:06:52;;;;;;;30.30;6.90;;;29.80;57.10;;;;;;5069225;28;20655;-78
2023/08/24 11:09:19;;;;;;;35.53;7.47;;;30.00;57.00;;;;;;5068244;28;20323;-78
2023/08/24 11:11:57;;;;;;;33.43;7.03;;;30.00;56.80;;;;;;5069942;28;20516;-78
2023/08/24 11:14:26;;;;;;;38.20;7.73;;;30.20;56.70;;;;;;5070597;28;20199;-78
2023/08/24 11:16:54;;;;;;;28.77;6.73;;;30.20;56.60;;;;;;5069024;28;20304;-79
2023/08/24 11:19:22;;;;;;;29.90;6.93;;;30.20;56.40;;;;;;5068909;28;20231;-78
2023/08/24 11:21:49;;;;;;;26.93;6.77;;;30.30;56.40;;;;;;5066900;28;20754;-79
2023/08/24 11:24:18;;;;;;;35.40;7.50;;;30.30;56.20;;;;;;5068064;28;20551;-78
2023/08/24 11:26:46;;;;;;;33.90;7.30;;;30.30;56.20;;;;;;5056627;28;20212;-79
2023/08/24 11:29:13;;;;;;;23.83;6.60;;;30.30;56.20;;;;;;5070673;28;20199;-79
2023/08/24 11:31:41;;;;;;;38.30;7.60;;;30.30;56.20;;;;;;5068625;28;20261;-79
2023/08/24 11:34:08;;;;;;;38.40;7.57;;;30.40;56.30;;;;;;5068456;28;20200;-79
2023/08/24 11:36:48;;;;;;;25.07;6.40;;;30.40;56.20;;;;;;5068976;28;20298;-77
2023/08/24 11:39:19;;;;;;;51.47;8.77;;;30.40;56.20;;;;;;5066450;28;20214;-78
2023/08/24 11:41:47;;;;;;;40.50;7.68;;;30.40;56.10;;;;;;5070339;28;20624;-79
2023/08/24 11:44:14;;;;;;;29.40;6.80;;;30.40;56.10;;;;;;5068604;28;20188;-78
2023/08/24 11:46:41;;;;;;;33.37;6.97;;;30.40;56.10;;;;;;5065453;28;20292;-78
2023/08/24 11:49:08;;;;;;;32.43;7.13;;;30.30;56.00;;;;;;5056767;28;20673;-78
2023/08/24 11:51:37;;;;;;;31.73;6.83;;;30.30;56.00;;;;;;5070139;28;20544;-79
2023/08/24 11:54:08;;;;;;;33.40;7.30;;;30.30;56.00;;;;;;5070232;28;20284;-78
2023/08/24 11:56:41;;;;;;;34.03;6.93;;;30.40;56.10;;;;;;5069781;28;20271;-79
2023/08/24 11:59:13;;;;;;;36.07;7.40;;;30.40;56.10;;;;;;5069857;28;20191;-78
2023/08/24 12:01:41;;;;;;;31.57;7.70;;;30.30;56.00;;;;;;5070135;28;20542;-79
2023/08/24 12:04:09;;;;;;;31.33;7.00;;;30.30;56.00;;;;;;5069127;28;20278;-79
2023/08/24 12:06:36;;;;;;;44.50;8.30;;;30.30;56.00;;;;;;5069977;28;20214;-78
2023/08/24 12:09:07;;;;;;;28.90;6.73;;;30.30;56.00;;;;;;5069507;28;20295;-78
2023/08/24 12:11:38;;;;;;;33.30;7.17;;;30.30;56.00;;;;;;5069145;28;20662;-78
2023/08/24 12:14:09;;;;;;;32.73;7.13;;;30.30;56.00;;;;;;5069878;28;20227;-79
2023/08/24 12:16:36;;;;;;;35.47;7.30;;;30.30;56.10;;;;;;5069297;28;20242;-79
2023/08/24 12:19:07;;;;;;;29.27;6.80;;;30.30;56.10;;;;;;5069562;28;20209;-78
2023/08/24 12:21:34;;;;;;;32.33;6.97;;;30.30;56.10;;;;;;5055483;28;20235;-78
2023/08/24 12:24:05;;;;;;;28.60;6.57;;;30.20;56.10;;;;;;5068046;28;20200;-78
2023/08/24 12:26:35;;;;;;;33.20;7.10;;;30.20;56.10;;;;;;5069755;28;20210;-78
2023/08/24 12:29:03;;;;;;;26.83;6.47;;;30.20;56.10;;;;;;5068630;28;20640;-79
2023/08/24 12:31:31;;;;;;;25.97;6.67;;;30.20;56.20;;;;;;5068956;28;20294;-78
2023/08/24 12:34:03;;;;;;;37.07;7.33;;;30.20;56.20;;;;;;5067521;28;20237;-79
2023/08/24 12:36:30;;;;;;;25.73;6.43;;;30.20;56.20;;;;;;5068097;28;20698;-78
2023/08/24 12:38:57;;;;;;;35.35;7.22;;;30.20;56.20;;;;;;5067009;28;20222;-78
2023/08/24 12:41:24;;;;;;;48.63;8.23;;;30.20;56.20;;;;;;5066677;28;20247;-78